x

Gulf Of Maine - 78 Nm East Of Portsmouth, Nh (44005) Wave Buoy

9:50 - Sat 25th Oct 2014 All times are EDT. -4 hours from GMT.

  • Sig Wave height 3.3ft
  • Peak Period 10s
  • Average Period 5s
  • Wind
    13mph, 16mph gusts
  • Sea Temp 54°f
  • Ar Temp 54°f
  • Sea Pressure 1004.7mb
  • Gulf Of Maine - 78 Nm East Of Portsmouth, Nh
  • Gulf Of Maine - 78 Nm East Of Portsmouth, Nh

More Historic Weather Station data

Upgrade to MSW Pro to gain access to the past 30 days of data for over 8000 Wavebouys and Weather Stations around the globe.

Join Pro

Comparision Forecast

View Surf forecast
   
Sáb 10/25 9:50 3.5ft 10s 5s 13 16 mph 1004.7mb 54f 54f
8:50 3.5ft 4s 5s 13 16 mph 1005mb 54f 54f
7:50 4.5ft 9s 5s 16 20 mph 1005mb 54f 53f
6:50 4.5ft 4s 5s 18 22 mph 1004.6mb 54f 53f
5:50 4.5ft 9s 5s 18 20 mph 1004.3mb 54f 53f
4:50 4.5ft 5s 5s 20 25 mph 1004.2mb 54f 52f
3:50 5ft 5s 5s 20 25 mph 1003.8mb 54f 51f
2:50 5ft 5s 5s 20 25 mph 1003.7mb 54f 50f
1:50 5.5ft 6s 5s 20 25 mph 1003.7mb 54f 50f
12:50 6ft 6s 5s 22 25 mph 1003.5mb 54f 50f
Sex 10/24 11:50 6ft 6s 5s 25 29 mph 1003.5mb 54f 49f
10:50 6ft 6s 5s 22 27 mph 1003.6mb 54f 50f
9:50 6ft 5s 5s 22 27 mph 1003.7mb 54f 50f
8:50 7ft 5s 5s 22 27 mph 1003.7mb 54f 50f
7:50 6.5ft 6s 6s 22 27 mph 1003.5mb 54f 51f
6:50 8ft 7s 6s 20 25 mph 1003.3mb 54f 51f
5:50 8ft 8s 6s 20 25 mph 1002.7mb 54f 51f
4:50 9ft 9s 6s 20 25 mph 1002.1mb 55f 51f
3:50 8.5ft 9s 6s 25 27 mph 1001.7mb 55f 50f
2:50 8ft 9s 6s 25 27 mph 1001.6mb 55f 50f
1:50 7.5ft 10s 5s 22 27 mph 1001.4mb 55f 50f
12:50 8ft 10s 6s 25 29 mph 1001.5mb 55f 49f
11:50 8ft 10s 6s 22 27 mph 1002mb 55f 50f
10:50 8ft 10s 6s 25 29 mph 1001.8mb 55f 51f
9:50 9ft 8s 6s 25 29 mph 1001.8mb 55f 51f
8:50 9.5ft 9s 6s 25 29 mph 1001.4mb 55f 52f
7:50 11ft 9s 7s 25 29 mph 1000.9mb 55f 53f
6:50 12ft 8s 6s 27 31 mph 1000.5mb 55f 53f
5:50 11.5ft 9s 7s 27 34 mph 1000.6mb 55f 53f
4:50 12ft 9s 6s 27 34 mph 1000.3mb 55f 53f
3:50 12.5ft 10s 7s 27 34 mph 999.9mb 55f 53f
2:50 12.5ft 9s 7s 27 34 mph 1000mb 55f 53f
1:50 12.5ft 9s 7s 27 36 mph 1000.2mb 55f 53f
12:50 12.5ft 10s 7s 29 34 mph 1000.7mb 55f 53f
Qui 10/23 11:50 13ft 9s 7s 31 36 mph 1000.7mb 55f 53f
10:50 14ft 9s 7s 31 38 mph 1000.8mb 55f 54f
9:50 14.5ft 8s 7s 29 38 mph 1001.2mb 55f 55f
8:50 15ft 9s 7s 34 43 mph 1001.2mb 55f 55f
7:50 13.5ft 9s 7s 31 38 mph 1001.7mb 55f 55f
6:50 18ft 10s 8s 34 40 mph 1001.7mb 55f 55f
5:50 17.5ft 10s 8s 34 40 mph 1001.6mb 55f 55f
4:50 16ft 9s 7s 36 45 mph 1000.7mb 55f 56f
3:50 16ft 9s 7s 34 43 mph 1001.2mb 55f 55f
2:50 16.5ft 10s 7s 29 36 mph 1001.7mb 55f 56f
1:50 14ft 9s 7s 29 36 mph 1001.5mb 55f 56f
12:50 14.5ft 11s 7s 25 31 mph 1002.8mb 55f 56f
11:50 17ft 9s 7s 31 38 mph 1002.7mb 55f 56f
10:50 16.5ft 9s 7s 36 45 mph 1001.9mb 55f 57f
9:50 16ft 9s 7s 36 45 mph 1001.9mb 55f 57f
8:50 17.5ft 10s 7s 36 47 mph 1002.4mb 55f 56f
7:50 15ft 9s 7s 38 47 mph 1002.3mb 55f 56f
6:50 16.5ft 10s 7s 36 45 mph 1002.8mb 55f 56f
5:50 17.5ft 9s 7s 38 45 mph 1004mb 55f 55f
4:50 15.5ft 9s 7s 34 40 mph 1005.3mb 55f 56f
3:50 14.5ft 8s 7s 34 40 mph 1006mb 55f 55f
2:50 15.5ft 8s 7s 34 43 mph 1006.4mb 55f 55f
1:50 18ft 9s 8s 34 40 mph 1007.9mb 55f 56f
12:50 16ft 9s 7s 36 45 mph 1008.7mb 55f 54f
Qua 10/22 11:50 18.5ft 9s 8s 36 43 mph 1009.6mb 55f 54f
10:50 20.5ft 10s 8s 38 49 mph 1010.4mb 55f 54f
9:50 20ft 10s 8s 38 47 mph 1011.1mb 55f 54f
8:50 19ft 11s 8s 38 47 mph 1010.8mb 55f 53f
7:50 19.5ft 11s 8s 38 49 mph 1011.5mb 55f 53f
6:50 20ft 10s 8s 40 49 mph 1012.2mb 55f 54f
5:50 18.5ft 10s 8s 40 49 mph 1012.5mb 55f 54f
4:50 21.5ft 10s 8s 38 49 mph 1012.3mb 55f 54f
3:50 18.5ft 10s 7s 40 49 mph 1011.9mb 55f 55f
2:50 16.5ft 10s 7s 36 47 mph 1012mb 55f 55f
1:50 15ft 8s 7s 36 45 mph 1011.6mb 55f 53f
12:50 16.5ft 8s 7s 38 45 mph 1012.2mb 55f 53f
11:50 15.5ft 8s 7s 36 45 mph 1013.5mb 55f 54f
10:50 13.5ft 8s 6s 36 43 mph 1014.1mb 55f 55f
9:50 12.5ft 8s 6s 34 40 mph 1014.7mb 55f 55f
8:50 12ft 8s 6s 34 40 mph 1014.7mb 55f 54f
7:50 11.5ft 8s 6s 31 38 mph 1015.4mb 55f 54f
6:50 11ft 8s 6s 31 38 mph 1015.2mb 56f 54f
5:50 9.5ft 7s 6s 29 36 mph 1015.1mb 56f 55f
4:50 6ft 6s 5s 29 34 mph 1015.1mb 56f 56f
3:50 6ft 6s 5s 25 34 mph 1015mb 56f 56f
2:50 6ft 6s 5s 22 27 mph 1015.1mb 56f 55f
1:50 5ft 7s 5s 25 31 mph 1015.3mb 56f 56f
12:50 5ft 6s 5s 18 22 mph 1015.6mb 56f 56f
Ter 10/21 11:50 6ft 6s 5s 18 22 mph 1015.4mb 56f 57f
10:50 6ft 6s 5s 18 22 mph 1015.3mb 56f 57f
9:50 5ft 6s 5s 25 31 mph 1014.6mb 56f 57f
8:50 4.5ft 6s 5s 20 22 mph 1014.4mb 56f 57f
7:50 4.5ft 6s 4s 20 25 mph 1014.2mb 56f 57f
6:50 4.5ft 6s 5s 18 20 mph 1014.6mb 55f 56f
5:50 5ft 7s 5s 18 20 mph 1014.6mb 56f 56f
4:50 5ft 7s 5s 18 22 mph 1014.6mb 56f 57f
3:50 3.5ft 6s 5s 18 20 mph 1014.8mb 56f 57f